Terminal Aerodrome Forecast
Issued by NWS

Home | Current Version | Previous Version | Graphics & Text | Print | Product List | Glossary Off
Versions: 1 2 3 4 5 6 7 8 9 10 11 12 13 14 15

000
FTUS43 KGRB 200520
TAFRHI
TAF
KRHI 200520Z 2006/2106 VRB03KT P6SM SKC
      TEMPO 2010/2012 3SM BR SCT005
     FM201400 25005KT P6SM SCT250
     FM210100 VRB03KT P6SM SCT250=

USA.gov is the U.S. government's official web portal to all federal, state and local government web resources and services.